Tuesday, May 31, 2016
00:09 UTC
  |  Log In   |  Register Free
Airport Search:

Lenawee County Airport
(KADG)

Lenawee County Airport Diagram
No Airport Diagram Available

FAA data valid effective Mar 31 2016 - May 26 2016 (unless otherwise noted).

 
 
 
 
 
 
 
 
 
 
 
 
 
 
Current Aviation Weather for KADG

Weather Summary


The most recent METAR observation for ADG was updated at: 12:53 UTC
METAR for KADG is not available. Closest METAR is for KUSE
KADG  (most recent observation was updatred at 30:23 UTC)
302353Z AUTO 33004KT 10SM CLR 27/11 A2996 RMK AO2 SLP144 T02720106 10300 20272 55002

KUSE  (15.6 nm NE)   (most recent observation was updated at 30:23 UTC)
302355Z AUTO 29008KT 10SM 28/27 A2996 RMK AO2

KDUH  (20.5 nm NW)   (most recent observation was updated at 30:23 UTC)
302355Z AUTO 30003KT 10SM CLR 28/10 A2996 RMK AO2 T02810103 10302 20280

TAF for KADG is not available.
KTOL  (20.7 nm NW)   (most recent observation was updatred at 30:23 UTC)
302329Z 3100/3124 31004KT P6SM SKC FM311500 05004KT P6SM FEW050 SCT250


KJXN  (29.1 nm SE)   (most recent observation was updatred at 30:23 UTC)
302340Z 3100/3124 VRB03KT P6SM FEW250 FM311200 09004KT P6SM FEW250 FM312100 13008KT P6SM SCT250


KYIP  (33.0 nm SW)   (most recent observation was updatred at 30:23 UTC)
302326Z 3100/3124 28010KT P6SM SCT060 FM310100 32005KT P6SM SKC FM310700 03005KT P6SM SCT250 FM311400 07005KT P6SM BKN250 FM311900 12007KT P6SM FEW050 OVC200
GlobalAir.com is loading additional information.
 Current Weather at ADG
83.0 F° (28.3 C°)

Northwest winds at 8.1 mph
Pressure:
29.96 in
Humidity:
32%
Wind:
Northwest at 8.1 mph
Dew Point:
50.0 F° (10.0 C°)
Visibility:
10.00 mi
ADG NOAA Radar




Find All Airport Services Find A Hotel Find A Rental Car Find A Golf Course Find A Restaurant $100 Hamburger



Airport Weather Forecast for KADG

Translated METAR for KADG (2353 UTC)
METAR:
KADG 302353Z AUTO 33004KT 10SM CLR 27/11 A2996 RMK AO2 SLP144 T02720106 10300 20272 55002
Conditions at:
KADG (Lenawee County, MI) observed 2353 UTC 30 May 2016
Temperature:
27°C (80.6°F)
Dewpoint:
11°C (51.8°F) [RH = 36.8]
Pressure:
29.96 inches Hg (1014.6 mb)
pressure at sea level is 144 in Hg
Winds:
from the NNW (330 degrees) at 4.6 mph (4 knots: 2.1 m/s)
Visibility:
10 mile(s)
Ceiling:
at least 12,000 feet AGL
Clouds:
Clear below 12,000 feet AGL
Remarks:
site is un-manned
site is automated and HAS a precipitation sensor

Translated TAF for KTOL (Toledo Express, OH) (2329 UTC)
TAF text:
KTOL 302329Z 3100/3124 31004KT P6SM SKC
Forecast period:
Tuesday May 31 2016 00:00 UTC - Tuesday May 31 2016 24:00 UTC
Forecast type:
FROM: standard forecast or significant change
Winds:
from the NW (310 degrees) at 4.6 mph (4 knots: 2.1 m/s)
Visibility:
6 or more mile(s) (9.7+ km)
Ceiling:
at least 12,000 feet AGL
Clouds:
Clear Skies
Weather:
no significant weather observed at this time
TAF text:
FM311500 05004KT P6SM FEW050 SCT250
Forecast period:
Tuesday May 31 2016 15:00 UTC - Tuesday May 31 2016 24:00 UTC
Forecast type:
FROM: standard forecast or significant change
Winds:
from the NE (050 degrees) at 4.6 mph (4 knots: 2.1 m/s)
Visibility:
6 or more mile(s) (9.7+ km)
Ceiling:
at least 12,000 feet AGL
Clouds:
Few Clouds at 5,000 feet AGL
Scattered Clouds at 25,000 feet AGL
Weather:
no significant weather observed at this time
FBO's on the Field
FBO Company Facility Photos Services Transportation Aviation Fuel Prices: Prices include tax
Catering Weather Repair Courtesy Rental Type 100LL JetA JetA+ MOGAS 8087
 
Lenawee County Airport

This FBO has not yet been rated
FS:Avfuel
Last Updated: Apr-21
Login to update fuel prices
SS:
Contact Lenawee County AirportMore FBO Information
 
Add another FBO Facility Photos Catering Weather Repair Courtesy Rental Type 100LL JetA JetA+ MOGAS 8087
Services Transportation Aviation Fuel Prices: Prices include tax


model-print
model-print
model-print
model-print